Apiliotis — SYVY — position and weather

sailwx.info

Track history (hours):
 
Tides and Currents Weather Stations Pressure Air Temp Water Temp Dewpoint Dewpoint Depression Visibility Wind Speed Wind Dir Waves Ship Positions

Apiliotis

Last reported at 2016-Aug-23 16:34 UTC. Time now 2016-Aug-25 00:59 UTC.
Position N 37°02' E 025°18'.

Length 78 m; draft 4 m.

Type: Ship. MMSI: 240438000.

Date/timePositionNaut miles runAvg speedWind from/ knotsBaromVisibWave heightAir tempDewpointWater temp
2016-Aug-23 16:34N 37°02' E 025°18'5 4.6
2016-Aug-23 15:34N 37°06' E 025°22'0 0.0
2016-Aug-23 14:34N 37°06' E 025°22'0 0.0
2016-Aug-23 13:33N 37°06' E 025°22'1 0.6
2016-Aug-23 12:34N 37°06' E 025°22'1 0.7
2016-Aug-23 11:33N 37°06' E 025°22'2 1.7
2016-Aug-23 10:33N 37°07' E 025°21'10 1.3
2016-Aug-23 03:07N 37°08' E 025°08'610.7
2016-Aug-23 02:34N 37°14' E 025°12'1110.8
2016-Aug-23 01:34N 37°23' E 025°17'5 4.8
2016-Aug-23 00:34N 37°28' E 025°20'0 0.0
2016-Aug-22 23:34N 37°28' E 025°20'0 0.0
2016-Aug-22 22:34N 37°28' E 025°20'0 0.0
2016-Aug-22 21:34N 37°28' E 025°20'0 0.0
2016-Aug-22 20:34N 37°28' E 025°20'0 0.0
2016-Aug-22 19:34N 37°28' E 025°20'0 0.0
2016-Aug-22 18:34N 37°28' E 025°20'7 6.5
2016-Aug-22 17:34N 37°30' E 025°12'3 3.0
2016-Aug-22 16:34N 37°32' E 025°09'0 0.0
2016-Aug-22 15:34N 37°32' E 025°09'0 0.0
2016-Aug-22 14:33N 37°32' E 025°09'4 3.8
2016-Aug-22 13:34N 37°33' E 025°05'51 3.4
2016-Aug-21 22:19N 38°20' E 024°37'74 2.3
2016-Aug-20 14:11N 39°26' E 023°54'710.8
2016-Aug-20 13:33N 39°30' E 024°02'1110.9
2016-Aug-20 12:33N 39°35' E 024°15'2511.8
2016-Aug-20 10:24N 39°46' E 024°44'1211.8
2016-Aug-20 09:22N 39°51' E 024°59'4 1.3
2016-Aug-20 06:32N 39°52' E 025°03'0 0.0
2016-Aug-20 04:29N 39°52' E 025°03'0 0.0
2016-Aug-20 03:28N 39°52' E 025°03'  
2016-Aug-17 09:33N 37°20' E 025°51'1311.4
2016-Aug-17 08:26N 37°21' E 025°35'1011.1
2016-Aug-17 07:34N 37°22' E 025°23'6 6.3
2016-Aug-17 06:34N 37°28' E 025°20'0 0.0
2016-Aug-17 05:34N 37°28' E 025°20'0 0.0
2016-Aug-17 04:34N 37°28' E 025°20'0 0.0
2016-Aug-17 03:33N 37°28' E 025°20'0 0.0
2016-Aug-17 02:34N 37°28' E 025°19'9 9.2
2016-Aug-17 01:34N 37°32' E 025°09'0 0.0
2016-Aug-17 00:34N 37°32' E 025°09'0 0.0
2016-Aug-16 23:34N 37°32' E 025°09'0 0.0
2016-Aug-16 22:33N 37°32' E 025°09'0 0.0
2016-Aug-16 21:33N 37°32' E 025°09'0 0.0
2016-Aug-16 20:33N 37°32' E 025°09'6 5.8
2016-Aug-16 19:34N 37°34' E 025°02'32 4.0
2016-Aug-16 11:32N 37°44' E 024°24'6 0.7
2016-Aug-16 03:33N 37°40' E 024°19'0 0.1
2016-Aug-16 02:30N 37°40' E 024°19'1 0.7
2016-Aug-16 01:33N 37°40' E 024°18'10 9.6
2016-Aug-16 00:33N 37°38' E 024°06'1111.1
2016-Aug-15 23:34N 37°38' E 023°52'1010.1
2016-Aug-15 22:34N 37°43' E 023°41'1010.0
2016-Aug-15 21:34N 37°50' E 023°32'10 9.6
2016-Aug-15 20:33N 37°57' E 023°23'8 8.0
2016-Aug-15 19:31N 38°02' E 023°31'0 0.1
2016-Aug-15 18:31N 38°02' E 023°31'0 0.0
2016-Aug-15 17:31N 38°02' E 023°31'0 0.0
2016-Aug-15 16:31N 38°02' E 023°31'0 0.0
2016-Aug-15 15:31N 38°02' E 023°31'0 0.0
2016-Aug-15 14:31N 38°02' E 023°31'0 0.0
2016-Aug-15 13:31N 38°02' E 023°31'0 0.0
2016-Aug-15 12:31N 38°02' E 023°31'0 0.0
2016-Aug-15 11:31N 38°02' E 023°31'0 0.0
2016-Aug-15 10:31N 38°02' E 023°31'0 0.0
2016-Aug-15 09:31N 38°02' E 023°31'0 0.0
2016-Aug-15 08:31N 38°02' E 023°31'0 0.0
2016-Aug-15 07:31N 38°02' E 023°31'0 0.0
2016-Aug-15 06:31N 38°02' E 023°31'0 0.0
2016-Aug-15 04:31N 38°02' E 023°31'0 0.0
2016-Aug-15 03:31N 38°02' E 023°31'0 0.0
2016-Aug-15 02:31N 38°02' E 023°31'0 0.0
2016-Aug-15 01:31N 38°02' E 023°31'0 0.0
2016-Aug-15 00:31N 38°02' E 023°31'0 0.0
2016-Aug-14 23:31N 38°02' E 023°31'0 0.0
2016-Aug-14 22:31N 38°02' E 023°31'0 0.0
2016-Aug-14 21:31N 38°02' E 023°31'0 0.0
2016-Aug-14 20:31N 38°02' E 023°31'0 0.0
2016-Aug-14 19:31N 38°02' E 023°31'0 0.0
2016-Aug-14 18:31N 38°02' E 023°31'0 0.0
2016-Aug-14 17:31N 38°02' E 023°31'0 0.0
2016-Aug-14 16:31N 38°02' E 023°31'0 0.0
2016-Aug-14 15:31N 38°02' E 023°31'0 0.0
2016-Aug-14 14:31N 38°02' E 023°31'0 0.0
2016-Aug-14 13:31N 38°02' E 023°31'0 0.0
2016-Aug-14 12:31N 38°02' E 023°31'0 0.0
2016-Aug-14 11:31N 38°02' E 023°31'0 0.0
2016-Aug-14 10:31N 38°02' E 023°31'0 0.0
2016-Aug-14 09:31N 38°02' E 023°31'0 0.0
2016-Aug-14 08:28N 38°02' E 023°31'0 0.0
2016-Aug-14 07:31N 38°02' E 023°31'0 0.0
2016-Aug-14 06:31N 38°02' E 023°31'0 0.0
2016-Aug-14 04:31N 38°02' E 023°31'0 0.0
2016-Aug-14 03:31N 38°02' E 023°31'0 0.0
2016-Aug-14 02:31N 38°02' E 023°31'0 0.0
2016-Aug-14 01:31N 38°02' E 023°31'0 0.0
2016-Aug-14 00:31N 38°02' E 023°31'0 0.0
2016-Aug-13 23:31N 38°02' E 023°31'0 0.0
2016-Aug-13 22:31N 38°02' E 023°31'0 0.0
2016-Aug-13 21:31N 38°02' E 023°31'0 0.0
2016-Aug-13 20:31N 38°02' E 023°31'0 0.0
2016-Aug-13 19:31N 38°02' E 023°31'0 0.0
2016-Aug-13 18:31N 38°02' E 023°31'0 0.0
2016-Aug-13 17:31N 38°02' E 023°31'0 0.0
2016-Aug-13 16:34N 38°02' E 023°31'  
Track history (hours):
 
Tides and Currents Weather Stations Pressure Air Temp Water Temp Dewpoint Dewpoint Depression Visibility Wind Speed Wind Dir Waves Ship Positions

Apiliotis

Last reported at 2016-Aug-23 16:34 UTC. Time now 2016-Aug-25 00:59 UTC.
Position N 37°02' E 025°18'.

Length 78 m; draft 4 m.

Type: Ship. MMSI: 240438000.

Date/timePositionNaut miles runAvg speedWind from/ knotsBaromVisibWave heightAir tempDewpointWater temp
2016-Aug-23 16:34N 37°02' E 025°18'5 4.6
2016-Aug-23 15:34N 37°06' E 025°22'0 0.0
2016-Aug-23 14:34N 37°06' E 025°22'0 0.0
2016-Aug-23 13:33N 37°06' E 025°22'1 0.6
2016-Aug-23 12:34N 37°06' E 025°22'1 0.7
2016-Aug-23 11:33N 37°06' E 025°22'2 1.7
2016-Aug-23 10:33N 37°07' E 025°21'10 1.3
2016-Aug-23 03:07N 37°08' E 025°08'610.7
2016-Aug-23 02:34N 37°14' E 025°12'1110.8
2016-Aug-23 01:34N 37°23' E 025°17'5 4.8
2016-Aug-23 00:34N 37°28' E 025°20'0 0.0
2016-Aug-22 23:34N 37°28' E 025°20'0 0.0
2016-Aug-22 22:34N 37°28' E 025°20'0 0.0
2016-Aug-22 21:34N 37°28' E 025°20'0 0.0
2016-Aug-22 20:34N 37°28' E 025°20'0 0.0
2016-Aug-22 19:34N 37°28' E 025°20'0 0.0
2016-Aug-22 18:34N 37°28' E 025°20'7 6.5
2016-Aug-22 17:34N 37°30' E 025°12'3 3.0
2016-Aug-22 16:34N 37°32' E 025°09'0 0.0
2016-Aug-22 15:34N 37°32' E 025°09'0 0.0
2016-Aug-22 14:33N 37°32' E 025°09'4 3.8
2016-Aug-22 13:34N 37°33' E 025°05'51 3.4
2016-Aug-21 22:19N 38°20' E 024°37'74 2.3
2016-Aug-20 14:11N 39°26' E 023°54'710.8
2016-Aug-20 13:33N 39°30' E 024°02'1110.9
2016-Aug-20 12:33N 39°35' E 024°15'2511.8
2016-Aug-20 10:24N 39°46' E 024°44'1211.8
2016-Aug-20 09:22N 39°51' E 024°59'4 1.3
2016-Aug-20 06:32N 39°52' E 025°03'0 0.0
2016-Aug-20 04:29N 39°52' E 025°03'0 0.0
2016-Aug-20 03:28N 39°52' E 025°03'  
2016-Aug-17 09:33N 37°20' E 025°51'1311.4
2016-Aug-17 08:26N 37°21' E 025°35'1011.1
2016-Aug-17 07:34N 37°22' E 025°23'6 6.3
2016-Aug-17 06:34N 37°28' E 025°20'0 0.0
2016-Aug-17 05:34N 37°28' E 025°20'0 0.0
2016-Aug-17 04:34N 37°28' E 025°20'0 0.0
2016-Aug-17 03:33N 37°28' E 025°20'0 0.0
2016-Aug-17 02:34N 37°28' E 025°19'9 9.2
2016-Aug-17 01:34N 37°32' E 025°09'0 0.0
2016-Aug-17 00:34N 37°32' E 025°09'0 0.0
2016-Aug-16 23:34N 37°32' E 025°09'0 0.0
2016-Aug-16 22:33N 37°32' E 025°09'0 0.0
2016-Aug-16 21:33N 37°32' E 025°09'0 0.0
2016-Aug-16 20:33N 37°32' E 025°09'6 5.8
2016-Aug-16 19:34N 37°34' E 025°02'32 4.0
2016-Aug-16 11:32N 37°44' E 024°24'6 0.7
2016-Aug-16 03:33N 37°40' E 024°19'0 0.1
2016-Aug-16 02:30N 37°40' E 024°19'1 0.7
2016-Aug-16 01:33N 37°40' E 024°18'10 9.6
2016-Aug-16 00:33N 37°38' E 024°06'1111.1
2016-Aug-15 23:34N 37°38' E 023°52'1010.1
2016-Aug-15 22:34N 37°43' E 023°41'1010.0
2016-Aug-15 21:34N 37°50' E 023°32'10 9.6
2016-Aug-15 20:33N 37°57' E 023°23'8 8.0
2016-Aug-15 19:31N 38°02' E 023°31'0 0.1
2016-Aug-15 18:31N 38°02' E 023°31'0 0.0
2016-Aug-15 17:31N 38°02' E 023°31'0 0.0
2016-Aug-15 16:31N 38°02' E 023°31'0 0.0
2016-Aug-15 15:31N 38°02' E 023°31'0 0.0
2016-Aug-15 14:31N 38°02' E 023°31'0 0.0
2016-Aug-15 13:31N 38°02' E 023°31'0 0.0
2016-Aug-15 12:31N 38°02' E 023°31'0 0.0
2016-Aug-15 11:31N 38°02' E 023°31'0 0.0
2016-Aug-15 10:31N 38°02' E 023°31'0 0.0
2016-Aug-15 09:31N 38°02' E 023°31'0 0.0
2016-Aug-15 08:31N 38°02' E 023°31'0 0.0
2016-Aug-15 07:31N 38°02' E 023°31'0 0.0
2016-Aug-15 06:31N 38°02' E 023°31'0 0.0
2016-Aug-15 04:31N 38°02' E 023°31'0 0.0
2016-Aug-15 03:31N 38°02' E 023°31'0 0.0
2016-Aug-15 02:31N 38°02' E 023°31'0 0.0
2016-Aug-15 01:31N 38°02' E 023°31'0 0.0
2016-Aug-15 00:31N 38°02' E 023°31'0 0.0
2016-Aug-14 23:31N 38°02' E 023°31'0 0.0
2016-Aug-14 22:31N 38°02' E 023°31'0 0.0
2016-Aug-14 21:31N 38°02' E 023°31'0 0.0
2016-Aug-14 20:31N 38°02' E 023°31'0 0.0
2016-Aug-14 19:31N 38°02' E 023°31'0 0.0
2016-Aug-14 18:31N 38°02' E 023°31'0 0.0
2016-Aug-14 17:31N 38°02' E 023°31'0 0.0
2016-Aug-14 16:31N 38°02' E 023°31'0 0.0
2016-Aug-14 15:31N 38°02' E 023°31'0 0.0
2016-Aug-14 14:31N 38°02' E 023°31'0 0.0
2016-Aug-14 13:31N 38°02' E 023°31'0 0.0
2016-Aug-14 12:31N 38°02' E 023°31'0 0.0
2016-Aug-14 11:31N 38°02' E 023°31'0 0.0
2016-Aug-14 10:31N 38°02' E 023°31'0 0.0
2016-Aug-14 09:31N 38°02' E 023°31'0 0.0
2016-Aug-14 08:28N 38°02' E 023°31'0 0.0
2016-Aug-14 07:31N 38°02' E 023°31'0 0.0
2016-Aug-14 06:31N 38°02' E 023°31'0 0.0
2016-Aug-14 04:31N 38°02' E 023°31'0 0.0
2016-Aug-14 03:31N 38°02' E 023°31'0 0.0
2016-Aug-14 02:31N 38°02' E 023°31'0 0.0
2016-Aug-14 01:31N 38°02' E 023°31'0 0.0
2016-Aug-14 00:31N 38°02' E 023°31'0 0.0
2016-Aug-13 23:31N 38°02' E 023°31'0 0.0
2016-Aug-13 22:31N 38°02' E 023°31'0 0.0
2016-Aug-13 21:31N 38°02' E 023°31'0 0.0
2016-Aug-13 20:31N 38°02' E 023°31'0 0.0
2016-Aug-13 19:31N 38°02' E 023°31'0 0.0
2016-Aug-13 18:31N 38°02' E 023°31'0 0.0
2016-Aug-13 17:31N 38°02' E 023°31'0 0.0
2016-Aug-13 16:34N 38°02' E 023°31'  

Dump ship's entire track history